Aviation Digital Data Service (ADDS)

Output produced by METARs form (0720 UTC 29 November 2014)
found at http://aviationweather.gov/adds/metars/
 
KACK 290540Z 2906/3006 32007KT P6SM SKC 
     FM291900 28007KT P6SM BKN200 
     FM292200 23008KT P6SM BKN150